Wakefield, Mississippi
Current Conditions -  °F | °C
As of 1:55 AM on Tuesday 27 Jan 2015 (Local Time) from KUTA Reporting Station
Clear Clear  
Wind Chill: 37°   Ceiling: Unl
Heat Index: 43°   Visibility: 10mi
Dew Point: 36°   Wind: 9mph
Humidity: 76%   Direction: 270°W
Pressure: 29.99"   Gusts: NA
Location:  34.6957°N, 90.0062°W
Report Text: KUTA 270755Z AUTO 27008KT 10SM CLR 06/02 A2999 RMK AO2
Loading
Personal Weather Stations






























Interactive Weather Map New forecast layout! Learn more

10-Day Weather Forecast

Advertisements
Track Severe Weather on mobile